BJV weather

Milas Bodrum International Airport
Bodrum, Mu─čla Province, Turkey

Public forecast

Using degrees Celsius for public forecast. Weather courtesy of forecast.io.

METAR (pilot weather report)

Retrieved 2019/05/23 09:20 UTC (0 seconds ago):

LTFE 230920Z 25007KT 9999 SCT070 BKN200 26/11 Q1010 NOSIG RMK RWY10 25007KT

TAF (pilot weather forecast)

Retrieved 2019/05/23 06:03 UTC (3 hours ago):

TAF COR LTFE 230440Z 2306/2406 VRB02KT 9999 SCT060 BKN200 BECMG 2308/2311 24012KT BECMG 2313/2315 VRB02KT BECMG 2316/2320 CAVOK